createdAt,value
2023-03-18T00:01:04.181Z,38.38
2023-03-18T00:03:32.558Z,38.28
2023-03-18T00:06:18.593Z,38.30
2023-03-18T00:08:47.393Z,38.71
2023-03-18T00:11:16.559Z,38.85
2023-03-18T00:13:44.414Z,39.18
2023-03-18T00:16:12.548Z,39.64
2023-03-18T00:18:40.429Z,39.30
2023-03-18T00:21:08.453Z,39.41
2023-03-18T00:23:37.159Z,38.66
2023-03-18T00:26:05.369Z,39.34
2023-03-18T00:28:32.810Z,39.78
2023-03-18T00:31:09.284Z,40.69
2023-03-18T00:33:38.258Z,40.23
2023-03-18T00:36:15.660Z,38.40
2023-03-18T00:38:45.884Z,39.35
2023-03-18T00:41:15.985Z,39.35
2023-03-18T00:43:54.574Z,39.08
2023-03-18T00:46:31.377Z,39.04
2023-03-18T00:49:01.106Z,38.86
2023-03-18T00:51:32.330Z,38.94
2023-03-18T00:54:02.094Z,39.58
2023-03-18T00:56:31.993Z,39.62
2023-03-18T00:59:00.240Z,39.05
2023-03-18T01:01:28.661Z,38.94
2023-03-18T01:03:56.551Z,39.19
2023-03-18T01:06:28.461Z,39.60
2023-03-18T01:08:57.156Z,39.68
2023-03-18T01:11:25.407Z,39.51
2023-03-18T01:13:53.212Z,39.52
2023-03-18T01:16:21.720Z,39.54
2023-03-18T01:18:49.396Z,40.08
2023-03-18T01:21:18.119Z,39.86
2023-03-18T01:23:46.999Z,39.62
2023-03-18T01:26:14.783Z,39.75
2023-03-18T01:28:43.067Z,39.98
2023-03-18T01:31:12.593Z,40.12
2023-03-18T01:33:41.531Z,40.44
2023-03-18T01:36:09.475Z,40.59
2023-03-18T01:38:37.701Z,40.35
2023-03-18T01:41:07.069Z,40.20
2023-03-18T01:43:37.036Z,40.10
2023-03-18T01:46:27.875Z,40.25
2023-03-18T01:48:55.476Z,40.98
2023-03-18T01:51:24.370Z,40.74
2023-03-18T01:53:52.340Z,40.94
2023-03-18T01:56:21.032Z,41.16
2023-03-18T01:58:52.388Z,41.28
2023-03-18T02:01:20.147Z,41.29
2023-03-18T02:03:48.496Z,41.44
2023-03-18T02:06:16.180Z,41.52
2023-03-18T02:08:44.287Z,41.46
2023-03-18T02:11:12.322Z,41.35
2023-03-18T02:13:42.557Z,41.26
2023-03-18T02:16:16.446Z,41.42
2023-03-18T02:18:49.446Z,41.45
2023-03-18T02:21:42.547Z,40.61
2023-03-18T02:24:22.671Z,41.69
2023-03-18T02:27:12.291Z,41.44
2023-03-18T02:29:42.349Z,41.05
2023-03-18T02:32:11.803Z,41.22
2023-03-18T02:34:40.888Z,40.64
2023-03-18T02:37:08.652Z,41.15
2023-03-18T02:39:36.374Z,41.48
2023-03-18T02:42:04.351Z,41.36
2023-03-18T02:44:33.482Z,41.31
2023-03-18T02:47:06.889Z,40.83
2023-03-18T02:49:34.701Z,40.57
2023-03-18T02:52:02.397Z,40.65
2023-03-18T02:54:30.800Z,40.71
2023-03-18T02:56:58.706Z,40.68
2023-03-18T02:59:26.722Z,40.74
2023-03-18T03:01:55.172Z,40.60
2023-03-18T03:04:24.351Z,40.46
2023-03-18T03:06:52.986Z,40.63
2023-03-18T03:09:22.648Z,40.57
2023-03-18T03:11:51.522Z,40.42
2023-03-18T03:14:20.012Z,40.83
2023-03-18T03:16:48.585Z,40.72
2023-03-18T03:19:17.905Z,40.95
2023-03-18T03:21:45.690Z,41.05
2023-03-18T03:24:13.202Z,41.19
2023-03-18T03:26:41.180Z,41.06
2023-03-18T03:29:08.684Z,41.37
2023-03-18T03:31:37.662Z,41.15
2023-03-18T03:34:06.921Z,41.44
2023-03-18T03:36:35.757Z,41.74
2023-03-18T03:39:04.257Z,42.05
2023-03-18T03:41:35.756Z,41.17
2023-03-18T03:44:03.287Z,41.67
2023-03-18T03:46:31.285Z,41.50
2023-03-18T03:48:59.322Z,41.68
2023-03-18T03:51:28.196Z,41.45
2023-03-18T03:53:55.727Z,41.33
2023-03-18T03:56:23.509Z,41.77
2023-03-18T03:58:50.938Z,41.71
2023-03-18T04:01:18.501Z,41.51
2023-03-18T04:03:46.435Z,42.47
2023-03-18T04:06:13.886Z,42.54
2023-03-18T04:08:43.211Z,42.28
2023-03-18T04:11:12.758Z,42.13
2023-03-18T04:13:41.864Z,42.34
2023-03-18T04:16:09.678Z,42.81
2023-03-18T04:18:37.414Z,43.31
2023-03-18T04:21:05.985Z,42.99
2023-03-18T04:23:36.255Z,42.98
2023-03-18T04:26:05.384Z,43.36
2023-03-18T04:28:33.204Z,42.75
2023-03-18T04:31:01.367Z,43.12
2023-03-18T04:33:29.106Z,43.47
2023-03-18T04:35:56.642Z,43.40
2023-03-18T04:38:24.572Z,43.02
2023-03-18T04:40:52.829Z,42.87
2023-03-18T04:43:20.306Z,43.40
2023-03-18T04:45:49.127Z,43.00
2023-03-18T04:48:17.000Z,43.01
2023-03-18T04:50:45.891Z,43.02
2023-03-18T04:53:13.890Z,43.24
2023-03-18T04:55:41.731Z,43.33
2023-03-18T04:58:09.818Z,43.48
2023-03-18T05:00:38.602Z,43.58
2023-03-18T05:03:12.692Z,43.52
2023-03-18T05:05:40.769Z,43.65
2023-03-18T05:08:10.250Z,42.57
2023-03-18T05:10:38.484Z,42.04
2023-03-18T05:13:06.352Z,41.90
2023-03-18T05:15:34.697Z,42.35
2023-03-18T05:18:02.540Z,42.51
2023-03-18T05:20:30.678Z,42.46
2023-03-18T05:22:58.667Z,42.60
2023-03-18T05:25:27.128Z,42.80
2023-03-18T05:27:54.888Z,42.23
2023-03-18T05:30:23.410Z,43.32
2023-03-18T05:32:51.558Z,43.19
2023-03-18T05:35:19.506Z,43.08
2023-03-18T05:37:47.783Z,43.01
2023-03-18T05:40:16.451Z,42.46
2023-03-18T05:42:55.832Z,42.94
2023-03-18T05:45:25.892Z,42.92
2023-03-18T05:47:54.061Z,42.18
2023-03-18T05:50:34.089Z,42.13
2023-03-18T05:53:03.766Z,42.18
2023-03-18T05:55:33.125Z,42.08
2023-03-18T05:58:01.020Z,42.29
2023-03-18T06:00:29.988Z,42.13
2023-03-18T06:03:00.130Z,41.80
2023-03-18T06:05:28.974Z,41.66
2023-03-18T06:07:56.842Z,41.98
2023-03-18T06:10:25.447Z,41.68
2023-03-18T06:12:55.383Z,42.53
2023-03-18T06:15:23.632Z,42.76
2023-03-18T06:17:51.593Z,42.91
2023-03-18T06:20:19.626Z,43.24
2023-03-18T06:22:49.762Z,42.40
2023-03-18T06:25:19.916Z,41.93
2023-03-18T06:27:48.465Z,42.60
2023-03-18T06:30:17.632Z,42.14
2023-03-18T06:32:45.496Z,42.19
2023-03-18T06:35:13.041Z,41.34
2023-03-18T06:37:40.551Z,41.35
2023-03-18T06:40:12.379Z,41.94
2023-03-18T06:42:41.489Z,41.56
2023-03-18T06:45:10.136Z,41.66
2023-03-18T06:47:39.400Z,41.75
2023-03-18T06:50:07.121Z,41.28
2023-03-18T06:52:35.385Z,42.23
2023-03-18T06:55:04.495Z,41.72
2023-03-18T06:57:32.811Z,41.73
2023-03-18T07:00:00.515Z,42.16
2023-03-18T07:02:27.944Z,41.85
2023-03-18T07:04:56.077Z,41.52
2023-03-18T07:07:24.713Z,41.73
2023-03-18T07:09:53.590Z,41.52
2023-03-18T07:12:21.333Z,42.02
2023-03-18T07:14:49.268Z,41.45
2023-03-18T07:17:19.939Z,40.74
2023-03-18T07:19:47.689Z,40.90
2023-03-18T07:22:19.304Z,41.19
2023-03-18T07:24:47.963Z,40.66
2023-03-18T07:27:16.672Z,40.38
2023-03-18T07:29:44.061Z,39.73
2023-03-18T07:32:11.525Z,40.34
2023-03-18T07:34:39.215Z,39.73
2023-03-18T07:37:06.804Z,39.66
2023-03-18T07:39:34.202Z,40.04
2023-03-18T07:42:02.164Z,39.75
2023-03-18T07:44:29.874Z,38.87
2023-03-18T07:46:57.471Z,38.52
2023-03-18T07:49:25.200Z,38.61
2023-03-18T07:51:52.592Z,38.03
2023-03-18T07:54:20.142Z,38.98
2023-03-18T07:56:48.823Z,38.50
2023-03-18T07:59:18.611Z,39.14
2023-03-18T08:01:47.055Z,38.50
2023-03-18T08:04:16.532Z,38.19
2023-03-18T08:06:45.039Z,37.72
2023-03-18T08:09:12.451Z,38.14
2023-03-18T08:11:40.370Z,37.35
2023-03-18T08:14:07.765Z,37.90
2023-03-18T08:16:35.190Z,37.78
2023-03-18T08:19:02.903Z,37.20
2023-03-18T08:21:31.677Z,37.03
2023-03-18T08:23:59.098Z,36.84
2023-03-18T08:26:26.963Z,37.02
2023-03-18T08:28:54.820Z,37.38
2023-03-18T08:31:22.414Z,36.84
2023-03-18T08:33:50.519Z,36.61
2023-03-18T08:36:18.659Z,36.80
2023-03-18T08:38:46.065Z,36.78
2023-03-18T08:41:14.533Z,36.55
2023-03-18T08:43:41.900Z,36.43
2023-03-18T08:46:09.540Z,35.97
2023-03-18T08:48:37.245Z,35.88
2023-03-18T08:51:14.677Z,36.53
2023-03-18T08:53:42.743Z,36.65
2023-03-18T08:56:10.142Z,35.96
2023-03-18T08:58:37.973Z,35.79
2023-03-18T09:01:06.132Z,35.32
2023-03-18T09:03:34.691Z,34.69
2023-03-18T09:06:03.349Z,35.03
2023-03-18T09:08:32.588Z,34.35
2023-03-18T09:11:00.115Z,33.84
2023-03-18T09:13:27.521Z,34.90
2023-03-18T09:15:55.206Z,35.41
2023-03-18T09:18:23.038Z,34.12
2023-03-18T09:20:50.582Z,34.11
2023-03-18T09:23:18.848Z,34.55
2023-03-18T09:25:46.713Z,34.03
2023-03-18T09:28:14.559Z,34.48
2023-03-18T09:30:42.666Z,34.29
2023-03-18T09:33:11.631Z,34.23
2023-03-18T09:35:39.314Z,33.39
2023-03-18T09:38:07.400Z,32.99
2023-03-18T09:40:38.400Z,33.43
2023-03-18T09:43:29.449Z,32.67
2023-03-18T09:45:57.552Z,32.49
2023-03-18T09:48:43.513Z,32.59
2023-03-18T09:51:19.160Z,32.80
2023-03-18T09:53:58.906Z,32.82
2023-03-18T09:56:30.118Z,32.05
2023-03-18T09:59:16.481Z,32.82
2023-03-18T10:01:46.619Z,32.68
2023-03-18T10:04:18.561Z,32.45
2023-03-18T10:06:47.228Z,32.05
2023-03-18T10:09:27.157Z,32.96
2023-03-18T10:12:01.688Z,31.93
2023-03-18T10:14:49.530Z,32.07
2023-03-18T10:17:22.596Z,32.18
2023-03-18T10:19:55.471Z,31.28
2023-03-18T10:22:45.396Z,32.05
2023-03-18T10:25:23.688Z,32.24
2023-03-18T10:27:57.419Z,32.62
2023-03-18T10:30:49.781Z,32.56
2023-03-18T10:33:37.289Z,33.38
2023-03-18T10:36:44.987Z,33.23
2023-03-18T10:39:18.371Z,32.45
2023-03-18T10:41:50.626Z,32.95
2023-03-18T10:44:22.173Z,33.61
2023-03-18T10:47:15.545Z,33.56
2023-03-18T10:49:47.375Z,32.63
2023-03-18T10:52:38.909Z,33.02
2023-03-18T10:55:15.928Z,32.58
2023-03-18T10:57:44.110Z,32.64
2023-03-18T11:00:29.823Z,31.93
2023-03-18T11:02:57.756Z,31.89
2023-03-18T11:05:28.396Z,31.29
2023-03-18T11:08:01.431Z,31.08
2023-03-18T11:10:36.595Z,31.62
2023-03-18T11:13:04.347Z,31.60
2023-03-18T11:15:39.294Z,31.63
2023-03-18T11:18:14.446Z,31.93
2023-03-18T11:20:45.367Z,30.52
2023-03-18T11:24:08.211Z,31.41
2023-03-18T11:26:56.249Z,31.76
2023-03-18T11:29:27.304Z,31.83
2023-03-18T11:31:58.463Z,32.58
2023-03-18T11:34:27.932Z,31.33
2023-03-18T11:37:08.329Z,32.43
2023-03-18T11:39:38.519Z,32.02
2023-03-18T11:42:32.729Z,31.49
2023-03-18T11:45:03.556Z,31.05
2023-03-18T11:47:33.125Z,31.72
2023-03-18T11:50:02.966Z,31.90
2023-03-18T11:53:14.084Z,30.29
2023-03-18T11:56:06.686Z,31.35
2023-03-18T11:58:37.162Z,31.76
2023-03-18T12:01:13.600Z,31.91
2023-03-18T12:04:04.256Z,30.71
2023-03-18T12:06:36.061Z,30.39
2023-03-18T12:09:18.539Z,30.27
2023-03-18T12:11:57.730Z,30.61
2023-03-18T12:14:30.290Z,30.27
2023-03-18T12:17:25.612Z,30.53
2023-03-18T12:20:30.735Z,29.80
2023-03-18T12:23:30.371Z,30.46
2023-03-18T12:26:01.043Z,30.84
2023-03-18T12:28:42.647Z,29.77
2023-03-18T12:31:20.288Z,30.72
2023-03-18T12:33:58.079Z,30.64
2023-03-18T12:36:33.185Z,30.54
2023-03-18T12:39:10.029Z,30.55
2023-03-18T12:41:48.989Z,30.87
2023-03-18T12:44:37.969Z,31.12
2023-03-18T12:47:12.039Z,30.88
2023-03-18T12:49:42.408Z,31.27
2023-03-18T12:52:36.011Z,31.37
2023-03-18T12:55:21.708Z,31.36
2023-03-18T12:57:54.554Z,31.47
2023-03-18T13:00:31.941Z,31.20
2023-03-18T13:03:07.433Z,31.51
2023-03-18T13:05:53.105Z,31.72
2023-03-18T13:08:26.861Z,32.18
2023-03-18T13:11:10.518Z,32.18
2023-03-18T13:13:44.602Z,31.53
2023-03-18T13:16:13.798Z,31.40
2023-03-18T13:18:44.851Z,31.23
2023-03-18T13:21:17.532Z,30.50
2023-03-18T13:24:16.750Z,31.07
2023-03-18T13:27:20.146Z,31.30
2023-03-18T13:29:50.803Z,31.50
2023-03-18T13:32:24.583Z,30.90
2023-03-18T13:35:13.189Z,31.75
2023-03-18T13:37:46.711Z,30.76
2023-03-18T13:40:42.997Z,30.30
2023-03-18T13:43:18.533Z,30.87
2023-03-18T13:45:49.529Z,31.77
2023-03-18T13:48:18.537Z,30.63
2023-03-18T13:50:48.713Z,31.13
2023-03-18T13:53:28.790Z,30.47
2023-03-18T13:55:56.627Z,30.54
2023-03-18T13:58:27.767Z,31.09
2023-03-18T14:00:55.075Z,30.79
2023-03-18T14:03:52.138Z,31.44
2023-03-18T14:06:36.849Z,31.19
2023-03-18T14:09:30.710Z,31.19
2023-03-18T14:12:17.037Z,31.77
2023-03-18T14:14:51.395Z,31.16
2023-03-18T14:17:38.976Z,30.82
2023-03-18T14:20:17.068Z,30.85
2023-03-18T14:22:49.881Z,30.95
2023-03-18T14:25:17.466Z,31.08
2023-03-18T14:27:58.293Z,31.11
2023-03-18T14:30:32.262Z,30.56
2023-03-18T14:33:03.175Z,31.53
2023-03-18T14:36:15.736Z,31.07
2023-03-18T14:38:57.364Z,31.64
2023-03-18T14:41:29.632Z,31.05
2023-03-18T14:44:21.527Z,30.68
2023-03-18T14:46:58.183Z,31.21
2023-03-18T14:49:37.101Z,31.21
2023-03-18T14:52:22.616Z,31.36
2023-03-18T14:54:51.315Z,31.27
2023-03-18T14:57:22.308Z,31.76
2023-03-18T14:59:49.720Z,31.94
2023-03-18T15:02:46.457Z,32.64
2023-03-18T15:05:17.723Z,32.46
2023-03-18T15:07:50.530Z,33.20
2023-03-18T15:10:26.319Z,32.73
2023-03-18T15:13:14.897Z,32.71
2023-03-18T15:15:42.781Z,32.40
2023-03-18T15:18:19.262Z,32.45
2023-03-18T15:20:49.795Z,32.70
2023-03-18T15:23:20.711Z,33.32
2023-03-18T15:25:49.402Z,33.71
2023-03-18T15:28:23.794Z,33.68
2023-03-18T15:30:54.531Z,33.68
2023-03-18T15:33:24.749Z,33.41
2023-03-18T15:35:58.025Z,33.19
2023-03-18T15:38:28.330Z,33.19
2023-03-18T15:41:00.512Z,33.29
2023-03-18T15:43:35.570Z,33.20
2023-03-18T15:46:16.727Z,32.69
2023-03-18T15:48:54.154Z,33.17
2023-03-18T15:51:56.310Z,32.87
2023-03-18T16:45:47.306Z,36.35
2023-03-18T16:48:18.644Z,36.36
2023-03-18T16:50:48.191Z,35.88
2023-03-18T16:53:36.165Z,36.27
2023-03-18T16:56:15.045Z,36.26
2023-03-18T16:58:45.428Z,36.00
2023-03-18T17:01:17.088Z,36.51
2023-03-18T17:03:46.013Z,36.46
2023-03-18T17:06:14.673Z,36.56
2023-03-18T17:08:42.615Z,37.02
2023-03-18T17:11:18.269Z,37.35
2023-03-18T17:13:45.998Z,37.59
2023-03-18T17:16:20.068Z,37.78
2023-03-18T17:18:48.228Z,37.57
2023-03-18T17:21:17.140Z,38.19
2023-03-18T17:23:48.054Z,37.91
2023-03-18T17:26:16.299Z,38.23
2023-03-18T17:28:46.537Z,38.60
2023-03-18T17:31:14.900Z,38.36
2023-03-18T17:33:43.582Z,38.46
2023-03-18T17:36:11.630Z,38.90
2023-03-18T17:38:39.188Z,39.05
2023-03-18T17:41:16.103Z,38.89
2023-03-18T17:43:44.312Z,38.65
2023-03-18T17:46:12.473Z,38.84
2023-03-18T17:48:41.116Z,39.44
2023-03-18T17:51:20.816Z,39.08
2023-03-18T17:53:52.161Z,39.26
2023-03-18T17:56:20.796Z,39.40
2023-03-18T17:58:51.898Z,39.62
2023-03-18T18:01:30.252Z,39.79
2023-03-18T18:04:02.211Z,39.89
2023-03-18T18:06:32.936Z,38.94
2023-03-18T18:09:02.900Z,40.27
2023-03-18T18:11:39.576Z,40.33
2023-03-18T18:14:26.519Z,40.28
2023-03-18T18:16:57.079Z,40.33
2023-03-18T18:19:26.140Z,40.83
2023-03-18T18:21:55.373Z,40.85
2023-03-18T18:24:26.081Z,41.22
2023-03-18T18:26:55.097Z,42.57
2023-03-18T18:29:25.313Z,41.87
2023-03-18T18:31:53.275Z,41.19
2023-03-18T18:34:23.773Z,41.77
2023-03-18T18:36:53.174Z,41.50
2023-03-18T18:39:23.412Z,41.23
2023-03-18T18:41:54.104Z,41.15
2023-03-18T18:44:23.358Z,41.90
2023-03-18T18:46:52.438Z,41.71
2023-03-18T18:49:27.369Z,41.35
2023-03-18T18:51:58.097Z,42.20
2023-03-18T18:54:28.591Z,41.78
2023-03-18T18:56:58.095Z,41.81
2023-03-18T18:59:29.129Z,42.17
2023-03-18T19:02:01.224Z,42.46
2023-03-18T19:04:30.741Z,43.43
2023-03-18T19:07:01.404Z,43.62
2023-03-18T19:09:29.468Z,43.35
2023-03-18T19:11:58.270Z,42.64
2023-03-18T19:14:29.569Z,43.16
2023-03-18T19:16:59.266Z,43.20
2023-03-18T19:19:30.182Z,42.98
2023-03-18T19:21:58.342Z,42.80
2023-03-18T19:24:32.298Z,43.11
2023-03-18T19:27:26.675Z,42.86
2023-03-18T19:29:59.947Z,42.96
2023-03-18T19:32:34.488Z,43.45
2023-03-18T19:35:06.091Z,43.23
2023-03-18T19:37:42.297Z,43.55
2023-03-18T19:40:30.392Z,43.82
2023-03-18T19:43:03.673Z,43.72
2023-03-18T19:45:32.628Z,43.63
2023-03-18T19:48:01.085Z,44.54
2023-03-18T19:50:30.905Z,44.33
2023-03-18T19:53:01.258Z,44.16
2023-03-18T19:55:30.492Z,44.21
2023-03-18T19:58:00.362Z,43.70
2023-03-18T20:00:29.743Z,44.08
2023-03-18T20:02:58.794Z,44.37
2023-03-18T20:05:27.827Z,45.61
2023-03-18T20:07:57.278Z,46.15
2023-03-18T20:10:26.653Z,45.47
2023-03-18T20:12:55.224Z,44.81
2023-03-18T20:15:27.522Z,45.51
2023-03-18T20:17:58.832Z,45.74
2023-03-18T20:20:31.857Z,46.30
2023-03-18T20:23:07.634Z,45.19
2023-03-18T20:25:42.408Z,46.05
2023-03-18T20:28:19.202Z,46.47
2023-03-18T20:30:47.767Z,46.06
2023-03-18T20:33:16.476Z,45.63
2023-03-18T20:35:47.959Z,45.40
2023-03-18T20:38:27.064Z,46.06
2023-03-18T20:40:59.463Z,45.97
2023-03-18T20:43:29.262Z,45.86
2023-03-18T20:45:59.895Z,46.62
2023-03-18T20:48:34.266Z,46.91
2023-03-18T20:51:32.149Z,47.55
2023-03-18T20:54:01.360Z,47.68
2023-03-18T20:56:33.217Z,46.55
2023-03-18T20:59:05.859Z,46.97
2023-03-18T21:01:35.794Z,46.67
2023-03-18T21:04:04.830Z,46.48
2023-03-18T21:06:33.093Z,46.02
2023-03-18T21:09:01.676Z,45.94
2023-03-18T21:11:33.184Z,46.06
2023-03-18T21:14:01.401Z,45.65
2023-03-18T21:16:34.335Z,45.76
2023-03-18T21:19:04.423Z,47.63
2023-03-18T21:21:38.657Z,46.60
2023-03-18T21:24:27.501Z,46.92
2023-03-18T21:27:05.485Z,47.12
2023-03-18T21:29:34.222Z,47.72
2023-03-18T21:32:02.805Z,47.68
2023-03-18T21:34:31.706Z,47.70
2023-03-18T21:36:59.504Z,47.98
2023-03-18T21:39:28.247Z,48.42
2023-03-18T21:41:57.566Z,47.74
2023-03-18T21:44:29.108Z,47.90
2023-03-18T21:46:57.517Z,47.31
2023-03-18T21:49:25.817Z,47.63
2023-03-18T21:51:56.844Z,47.35
2023-03-18T21:54:26.132Z,46.99
2023-03-18T21:56:53.810Z,47.28
2023-03-18T21:59:21.755Z,47.89
2023-03-18T22:01:49.941Z,47.14
2023-03-18T22:04:18.140Z,47.98
2023-03-18T22:06:45.666Z,47.37
2023-03-18T22:09:13.069Z,46.84
2023-03-18T22:11:40.802Z,47.26
2023-03-18T22:14:12.184Z,47.52
2023-03-18T22:16:39.779Z,47.83
2023-03-18T22:19:07.472Z,47.06
2023-03-18T22:21:34.885Z,47.01
2023-03-18T22:24:02.311Z,46.83
2023-03-18T22:26:30.054Z,47.66
2023-03-18T22:28:57.467Z,47.11
2023-03-18T22:31:26.643Z,46.91
2023-03-18T22:33:54.887Z,46.90
2023-03-18T22:36:22.640Z,47.26
2023-03-18T22:38:50.167Z,48.05
2023-03-18T22:41:36.174Z,46.73
2023-03-18T22:44:06.421Z,46.83
2023-03-18T22:46:35.669Z,46.23
2023-03-18T22:49:08.103Z,47.73
2023-03-18T22:51:37.065Z,46.70
2023-03-18T22:54:04.506Z,47.88
2023-03-18T22:56:32.496Z,47.70
2023-03-18T22:59:02.978Z,47.59
2023-03-18T23:01:31.169Z,47.57
2023-03-18T23:04:01.181Z,47.60
2023-03-18T23:06:29.887Z,47.54
2023-03-18T23:08:57.285Z,47.84
2023-03-18T23:11:24.766Z,48.55
2023-03-18T23:13:53.909Z,47.86
2023-03-18T23:16:23.261Z,48.30
2023-03-18T23:18:51.184Z,48.29
2023-03-18T23:21:21.278Z,47.48
2023-03-18T23:23:49.184Z,47.87
2023-03-18T23:26:17.075Z,48.54
2023-03-18T23:28:45.837Z,48.44
2023-03-18T23:31:14.895Z,48.75
2023-03-18T23:33:42.685Z,48.62
2023-03-18T23:36:10.848Z,48.29
2023-03-18T23:38:38.304Z,48.68
2023-03-18T23:41:07.219Z,48.69
2023-03-18T23:43:35.010Z,48.84
2023-03-18T23:46:03.797Z,48.88
2023-03-18T23:48:31.546Z,49.02
2023-03-18T23:51:03.637Z,48.82
2023-03-18T23:53:31.065Z,48.54
2023-03-18T23:55:58.745Z,48.62
2023-03-18T23:58:26.308Z,48.86
